Time;durP1;ratioP1;P1;durP2;ratioP2;P2;SDS_P1;SDS_P2;PMS_P1;PMS_P2;Temp;Humidity;BMP_temperature;BMP_pressure;BME280_temperature;BME280_humidity;BME280_pressure;Samples;Min_cycle;Max_cycle;Signal;HPM_P1;HPM_P2
2023/11/07 00:00:42;;;;;;;9.65;1.90;;;;;;;14.05;80.83;100406.00;4965810;28;20526;-61
2023/11/07 00:03:09;;;;;;;6.70;2.25;;;;;;;14.34;80.12;100408.63;4947579;29;20062;-60
2023/11/07 00:05:37;;;;;;;9.85;2.45;;;;;;;14.24;80.43;100408.22;4954503;29;20559;-62
2023/11/07 00:08:04;;;;;;;8.10;2.10;;;;;;;14.48;80.32;100411.03;4954119;28;20051;-61
2023/11/07 00:10:32;;;;;;;10.40;2.30;;;;;;;14.06;81.43;100413.16;4954628;29;20050;-61
2023/11/07 00:12:59;;;;;;;7.28;2.10;;;;;;;14.11;80.93;100414.88;4953676;29;20526;-60
2023/11/07 00:15:27;;;;;;;8.70;2.33;;;;;;;14.32;80.13;100405.38;4968936;28;20075;-62
2023/11/07 00:17:54;;;;;;;5.25;2.03;;;;;;;14.23;79.84;100412.13;4984826;28;20051;-61
2023/11/07 00:20:22;;;;;;;9.13;2.38;;;;;;;14.19;80.22;100414.78;4953097;29;20055;-66
2023/11/07 00:22:49;;;;;;;10.95;2.17;;;;;;;13.80;82.12;100406.28;4953914;29;20057;-64
2023/11/07 00:25:16;;;;;;;10.65;2.50;;;;;;;13.49;82.38;100417.84;4944635;29;20619;-64
2023/11/07 00:27:44;;;;;;;9.05;2.80;;;;;;;13.91;81.72;100404.72;4932199;29;20059;-63
2023/11/07 00:30:11;;;;;;;7.28;2.63;;;;;;;13.95;81.25;100408.41;4964324;28;20764;-62
2023/11/07 00:32:41;;;;;;;;;;;;;;;13.98;81.98;100407.72;4942919;29;20047;-64
2023/11/07 00:35:08;;;;;;;6.18;2.17;;;;;;;14.19;80.58;100408.47;4940221;29;19922;-61
2023/11/07 00:37:36;;;;;;;9.25;2.40;;;;;;;14.43;79.59;100419.56;4964423;28;20054;-61
2023/11/07 00:40:03;;;;;;;8.57;2.65;;;;;;;13.29;81.72;100418.66;4933700;29;20047;-63
2023/11/07 00:42:31;;;;;;;7.70;2.38;;;;;;;13.60;84.23;100427.34;4933663;29;20551;-62
2023/11/07 00:44:58;;;;;;;11.52;2.47;;;;;;;13.30;83.98;100428.59;4934540;29;20043;-62
2023/11/07 00:47:25;;;;;;;8.52;2.10;;;;;;;13.31;83.14;100428.25;4933717;29;20058;-61
2023/11/07 00:49:53;;;;;;;8.40;2.42;;;;;;;13.97;82.94;100422.72;4964300;28;20044;-63
2023/11/07 00:52:21;;;;;;;9.35;2.00;;;;;;;13.89;81.28;100429.16;4934053;29;20384;-60
2023/11/07 00:54:48;;;;;;;7.85;2.55;;;;;;;14.27;80.61;100426.94;4934871;28;20051;-60
2023/11/07 00:57:16;;;;;;;7.32;2.17;;;;;;;14.32;79.91;100427.53;4933945;29;20051;-61
2023/11/07 00:59:44;;;;;;;5.30;1.75;;;;;;;14.25;79.43;100429.22;4934903;29;20047;-61
2023/11/07 01:02:11;;;;;;;5.72;1.90;;;;;;;14.39;79.15;100438.03;4939936;29;20123;-61
2023/11/07 01:04:39;;;;;;;5.07;1.45;;;;;;;14.27;78.37;100435.25;4952242;29;20546;-61
2023/11/07 01:07:06;;;;;;;6.63;1.83;;;;;;;13.66;81.00;100439.81;4952395;29;20059;-62
2023/11/07 01:09:34;;;;;;;6.95;1.65;;;;;;;13.48;81.62;100438.34;4953971;29;20055;-61
2023/11/07 01:12:02;;;;;;;4.60;1.42;;;;;;;13.73;81.01;100442.84;4968037;28;20066;-61
2023/11/07 01:14:29;;;;;;;5.88;1.85;;;;;;;14.17;79.37;100450.34;4983709;28;20055;-60
2023/11/07 01:16:56;;;;;;;6.00;1.75;;;;;;;13.95;79.30;100453.50;4952891;29;20463;-61
2023/11/07 01:19:23;;;;;;;7.60;1.70;;;;;;;13.71;79.01;100467.28;4951973;29;20062;-60
2023/11/07 01:21:51;;;;;;;6.60;1.48;;;;;;;13.65;80.45;100460.31;4984394;28;20051;-60
2023/11/07 01:24:19;;;;;;;6.00;1.52;;;;;;;13.81;79.12;100461.31;4973629;28;20418;-61
2023/11/07 01:26:46;;;;;;;8.48;1.38;;;;;;;13.41;80.34;100465.75;4964818;28;20403;-62
2023/11/07 01:29:13;;;;;;;8.65;1.65;;;;;;;13.02;82.54;100457.94;4955584;28;20047;-63
2023/11/07 01:31:40;;;;;;;3.58;1.30;;;;;;;13.43;80.19;100471.75;4939765;29;20055;-61
2023/11/07 01:34:08;;;;;;;7.40;1.60;;;;;;;13.71;81.04;100475.59;4935934;29;20051;-60
2023/11/07 01:36:35;;;;;;;7.25;1.70;;;;;;;13.33;79.75;100472.19;4934821;29;20056;-59
2023/11/07 01:39:05;;;;;;;5.65;1.38;;;;;;;13.19;79.97;100474.41;4934605;29;20392;-63
2023/11/07 01:41:33;;;;;;;5.55;1.50;;;;;;;12.96;83.67;100484.94;4949179;29;20064;-61
2023/11/07 01:44:00;;;;;;;8.88;1.70;;;;;;;13.23;81.55;100483.66;4934152;29;20047;-61
2023/11/07 01:46:28;;;;;;;5.78;1.25;;;;;;;12.87;83.63;100477.81;4933588;29;20063;-61
2023/11/07 01:48:56;;;;;;;6.78;1.60;;;;;;;12.99;83.53;100486.22;4930121;29;20304;-62
2023/11/07 01:51:24;;;;;;;6.47;1.27;;;;;;;13.74;81.40;100479.66;4925799;29;20048;-61
2023/11/07 01:53:52;;;;;;;3.90;1.10;;;;;;;14.06;79.53;100474.09;4983526;28;20051;-60
2023/11/07 01:56:23;;;;;;;4.65;1.35;;;;;;;14.03;78.34;100474.78;4968341;28;20056;-60
2023/11/07 01:58:51;;;;;;;6.13;1.70;;;;;;;14.05;77.95;100485.53;4952380;29;20063;-60
2023/11/07 02:01:18;;;;;;;6.82;1.83;;;;;;;13.05;80.15;100491.25;4937814;29;20118;-62
2023/11/07 02:03:45;;;;;;;6.18;1.33;;;;;;;13.47;82.54;100492.91;4936973;29;20051;-61
2023/11/07 02:06:13;;;;;;;4.53;1.40;;;;;;;13.83;80.25;100499.72;4937676;29;20154;-60
2023/11/07 02:08:40;;;;;;;4.88;1.38;;;;;;;14.09;78.92;100497.50;4937615;29;20052;-61
2023/11/07 02:11:07;;;;;;;7.35;1.60;;;;;;;14.31;78.07;100484.09;4935899;29;20276;-61
2023/11/07 02:13:36;;;;;;;5.72;1.30;;;;;;;14.10;78.36;100501.91;4966501;28;20044;-61
2023/11/07 02:16:04;;;;;;;6.20;1.58;;;;;;;13.98;78.29;100494.34;4936920;29;20533;-60
2023/11/07 02:18:31;;;;;;;7.60;1.10;;;;;;;13.76;79.59;100499.47;4937656;29;20051;-65
2023/11/07 02:20:58;;;;;;;7.13;1.50;;;;;;;13.83;79.47;100491.44;4937014;29;20059;-63
2023/11/07 02:23:30;;;;;;;9.05;1.85;;;;;;;13.96;78.55;100490.34;4935528;29;20412;-63
2023/11/07 02:25:58;;;;;;;5.03;1.30;;;;;;;14.15;77.96;100501.69;4937035;29;20510;-62
2023/11/07 02:28:25;;;;;;;5.78;1.73;;;;;;;14.01;77.81;100513.09;4936532;29;20048;-63
2023/11/07 02:30:52;;;;;;;6.00;1.27;;;;;;;13.90;77.67;100513.84;4932595;29;20064;-61
2023/11/07 02:33:20;;;;;;;7.38;1.70;;;;;;;13.88;78.38;100522.47;4945785;29;20058;-62
2023/11/07 02:35:48;;;;;;;7.65;1.60;;;;;;;13.64;79.73;100527.91;4970216;28;20403;-62
2023/11/07 02:38:16;;;;;;;4.90;1.60;;;;;;;13.96;78.77;100527.16;4955963;29;20054;-61
2023/11/07 02:40:44;;;;;;;6.60;1.33;;;;;;;12.87;79.95;100525.63;4955701;28;20058;-61
2023/11/07 02:43:12;;;;;;;7.20;1.60;;;;;;;13.15;81.91;100526.81;4955712;29;20047;-60
2023/11/07 02:45:39;;;;;;;4.80;1.38;;;;;;;13.72;79.85;100518.72;4954773;29;20054;-60
2023/11/07 02:48:07;;;;;;;7.45;1.60;;;;;;;13.72;79.23;100534.53;4954486;29;20058;-60
2023/11/07 02:50:34;;;;;;;4.82;1.52;;;;;;;13.74;78.54;100533.03;4936308;29;20412;-63
2023/11/07 02:53:03;;;;;;;7.05;1.63;;;;;;;13.30;77.33;100530.94;4935743;29;20055;-61
2023/11/07 02:55:30;;;;;;;7.00;1.63;;;;;;;13.56;79.54;100529.59;4945871;29;20047;-59
2023/11/07 02:57:58;;;;;;;5.70;1.45;;;;;;;13.45;79.72;100531.16;4955371;29;20051;-60
2023/11/07 03:00:34;;;;;;;5.30;1.30;;;;;;;13.66;79.57;100533.94;4955395;29;20051;-62
2023/11/07 03:03:03;;;;;;;8.38;1.60;;;;;;;12.89;78.20;100528.06;4941098;29;20440;-63
2023/11/07 03:05:31;;;;;;;9.15;1.50;;;;;;;13.13;81.79;100531.84;4934856;29;20052;-62
2023/11/07 03:07:58;;;;;;;4.22;1.33;;;;;;;13.61;79.38;100525.00;4936305;29;20055;-62
2023/11/07 03:10:25;;;;;;;4.65;1.52;;;;;;;13.56;78.09;100524.06;4936380;29;20185;-63
2023/11/07 03:12:53;;;;;;;8.38;1.65;;;;;;;13.35;79.44;100522.47;4949604;29;20499;-62
2023/11/07 03:15:20;;;;;;;6.88;1.98;;;;;;;13.35;79.32;100528.00;4935697;29;20059;-61
2023/11/07 03:17:48;;;;;;;8.20;1.38;;;;;;;13.08;78.02;100523.75;4966146;28;20086;-60
2023/11/07 03:20:16;;;;;;;6.65;1.63;;;;;;;12.87;79.64;100533.09;4935727;29;20642;-60
2023/11/07 03:22:43;;;;;;;6.53;1.60;;;;;;;13.26;79.56;100532.75;4965865;28;20063;-61
2023/11/07 03:25:21;;;;;;;3.30;1.23;;;;;;;13.38;78.99;100524.53;4966066;28;20512;-64
2023/11/07 03:27:52;;;;;;;5.75;1.45;;;;;;;13.53;78.52;100537.75;4966152;28;20052;-62
2023/11/07 03:30:19;;;;;;;6.15;1.98;;;;;;;13.50;77.88;100530.97;4966015;28;20047;-61
2023/11/07 03:32:47;;;;;;;10.15;2.10;;;;;;;13.50;77.83;100528.19;4949736;29;20143;-60
2023/11/07 03:35:14;;;;;;;9.23;1.90;;;;;;;13.29;76.52;100537.63;4935012;29;20044;-60
2023/11/07 03:37:45;;;;;;;3.88;1.60;;;;;;;13.32;79.29;100540.53;4966685;28;20056;-60
2023/11/07 03:40:12;;;;;;;7.97;1.58;;;;;;;13.30;78.51;100542.03;4935405;29;20052;-60
2023/11/07 03:42:40;;;;;;;6.35;1.65;;;;;;;13.61;78.23;100541.63;4965584;28;20052;-61
2023/11/07 03:45:08;;;;;;;4.88;1.58;;;;;;;13.72;77.07;100538.09;4949474;29;20063;-60
2023/11/07 03:47:35;;;;;;;8.07;1.73;;;;;;;13.34;77.06;100541.00;4949571;29;20720;-62
2023/11/07 03:50:03;;;;;;;5.65;1.60;;;;;;;12.85;79.85;100538.19;4934950;29;20056;-63
2023/11/07 03:52:30;;;;;;;10.45;1.70;;;;;;;13.18;79.37;100545.50;4935714;29;20062;-62
2023/11/07 03:54:57;;;;;;;9.73;1.77;;;;;;;12.98;78.93;100542.66;4940815;29;20465;-63
2023/11/07 03:57:25;;;;;;;9.18;1.58;;;;;;;13.20;79.24;100548.75;4945251;29;20054;-61
2023/11/07 03:59:52;;;;;;;6.85;1.63;;;;;;;13.26;78.52;100541.88;4965677;28;20063;-60
2023/11/07 04:02:21;;;;;;;7.03;1.67;;;;;;;13.35;77.88;100556.44;4935038;29;20055;-62
2023/11/07 04:04:48;;;;;;;6.45;1.77;;;;;;;12.93;79.89;100554.72;4934960;29;20066;-62
2023/11/07 04:07:16;;;;;;;9.70;1.65;;;;;;;13.03;79.34;100548.84;4933681;29;20511;-62
2023/11/07 04:09:43;;;;;;;7.10;1.85;;;;;;;12.84;77.45;100553.94;4935360;29;20066;-62
2023/11/07 04:12:12;;;;;;;5.03;1.55;;;;;;;12.74;79.66;100553.50;4934343;29;20064;-62
2023/11/07 04:14:39;;;;;;;5.47;1.70;;;;;;;12.57;80.17;100553.59;4933994;29;20063;-60
2023/11/07 04:17:06;;;;;;;8.13;1.70;;;;;;;12.89;80.09;100559.28;4948743;28;20056;-61
2023/11/07 04:19:34;;;;;;;9.02;2.20;;;;;;;13.20;78.89;100565.34;4938355;29;20063;-63
2023/11/07 04:22:04;;;;;;;6.75;2.28;;;;;;;13.04;79.15;100564.28;4932658;29;20797;-62
2023/11/07 04:24:31;;;;;;;9.73;1.92;;;;;;;13.30;78.46;100564.16;4935953;29;20047;-62
2023/11/07 04:26:58;;;;;;;6.57;1.83;;;;;;;13.26;78.26;100565.97;4935140;29;20071;-61
2023/11/07 04:29:26;;;;;;;8.30;2.10;;;;;;;13.24;77.28;100573.78;4974173;28;20062;-61
2023/11/07 04:31:53;;;;;;;10.35;2.30;;;;;;;13.41;77.31;100574.47;4935003;29;20466;-61
2023/11/07 04:34:20;;;;;;;8.00;2.75;;;;;;;13.14;77.69;100576.94;4935446;28;20052;-60
2023/11/07 04:36:48;;;;;;;9.00;2.30;;;;;;;13.03;77.47;100579.25;4933865;29;20492;-61
2023/11/07 04:39:15;;;;;;;11.73;2.42;;;;;;;12.88;78.48;100584.50;4934020;29;20051;-62
2023/11/07 04:41:43;;;;;;;8.13;2.30;;;;;;;12.93;78.86;100587.91;4933724;29;20170;-62
2023/11/07 04:44:11;;;;;;;8.13;2.10;;;;;;;13.08;78.06;100592.06;4964594;28;20077;-61
2023/11/07 04:46:39;;;;;;;13.63;2.65;;;;;;;13.21;77.52;100589.09;4934470;29;20050;-62
2023/11/07 04:49:07;;;;;;;8.38;2.88;;;;;;;12.95;77.34;100580.09;4934349;29;20052;-60
2023/11/07 04:51:36;;;;;;;10.38;2.17;;;;;;;13.12;78.66;100584.75;4933795;28;20407;-61
2023/11/07 04:54:03;;;;;;;14.10;2.97;;;;;;;12.96;77.74;100590.00;4934008;29;20082;-63
2023/11/07 04:56:30;;;;;;;8.40;2.10;;;;;;;12.61;78.95;100602.31;4951667;29;20526;-62
2023/11/07 04:58:58;;;;;;;12.38;2.38;;;;;;;12.93;78.83;100601.72;4967890;28;20067;-62
2023/11/07 05:01:25;;;;;;;12.15;2.70;;;;;;;12.50;78.49;100614.84;4953262;29;20055;-61
2023/11/07 05:03:53;;;;;;;9.00;1.83;;;;;;;12.36;77.02;100612.28;4948312;29;20055;-61
2023/11/07 05:06:21;;;;;;;13.32;2.30;;;;;;;12.55;79.62;100609.19;4934039;29;20066;-61
2023/11/07 05:08:48;;;;;;;6.22;1.92;;;;;;;12.79;78.73;100616.91;4934661;29;20697;-62
2023/11/07 05:11:19;;;;;;;9.13;2.75;;;;;;;12.60;78.36;100614.53;4948940;29;20051;-63
2023/11/07 05:13:46;;;;;;;;;;;;;;;12.19;78.24;100617.03;4934626;29;20059;-62
2023/11/07 05:16:13;;;;;;;8.85;2.22;;;;;;;12.71;80.08;100613.00;4933636;28;19923;-62
2023/11/07 05:18:40;;;;;;;12.68;2.90;;;;;;;12.29;78.58;100619.47;4933388;29;20044;-62
2023/11/07 05:21:08;;;;;;;16.58;2.67;;;;;;;12.31;81.73;100617.16;4932695;29;20044;-62
2023/11/07 05:23:35;;;;;;;11.95;2.58;;;;;;;11.84;81.72;100620.91;4944583;29;20733;-62
2023/11/07 05:26:03;;;;;;;9.43;2.05;;;;;;;12.23;82.15;100618.81;4914928;29;20060;-62
2023/11/07 05:28:30;;;;;;;9.35;2.42;;;;;;;12.52;80.09;100615.34;4925420;29;20051;-63
2023/11/07 05:30:57;;;;;;;11.10;2.92;;;;;;;12.75;79.35;100625.03;4962870;28;20566;-62
2023/11/07 05:33:25;;;;;;;10.73;2.60;;;;;;;12.54;79.87;100626.88;4952160;29;20051;-63
2023/11/07 05:35:52;;;;;;;12.07;2.55;;;;;;;12.91;78.75;100628.88;4937455;29;20048;-63
2023/11/07 05:38:20;;;;;;;8.98;2.40;;;;;;;12.66;77.50;100631.75;4952321;29;20048;-62
2023/11/07 05:40:48;;;;;;;6.88;2.13;;;;;;;12.95;77.27;100629.03;4937038;29;20071;-63
2023/11/07 05:43:16;;;;;;;9.52;2.30;;;;;;;12.50;78.87;100648.00;4937889;29;20052;-63
2023/11/07 05:45:44;;;;;;;9.07;2.63;;;;;;;12.79;78.39;100636.25;4937495;29;20043;-61
2023/11/07 05:48:11;;;;;;;10.90;2.60;;;;;;;12.26;79.43;100643.00;4936821;29;20633;-63
2023/11/07 05:50:39;;;;;;;11.60;2.35;;;;;;;12.48;78.62;100645.56;4938933;28;20082;-62
2023/11/07 05:53:08;;;;;;;15.27;2.80;;;;;;;12.42;79.29;100648.84;4937846;28;20066;-62
2023/11/07 05:55:35;;;;;;;10.25;2.47;;;;;;;12.29;79.23;100655.38;4947695;29;20047;-62
2023/11/07 05:58:02;;;;;;;8.98;2.65;;;;;;;12.64;79.10;100648.63;4954643;29;20094;-62
2023/11/07 06:00:30;;;;;;;16.02;3.50;;;;;;;12.98;78.26;100651.31;4968120;28;20048;-62
2023/11/07 06:02:57;;;;;;;7.13;2.33;;;;;;;12.51;77.83;100652.41;4949040;29;20675;-61
2023/11/07 06:05:24;;;;;;;8.20;2.58;;;;;;;12.62;78.86;100656.47;4985416;28;20090;-62
2023/11/07 06:07:55;;;;;;;13.48;2.40;;;;;;;12.85;77.81;100654.28;4953318;29;20696;-62
2023/11/07 06:10:22;;;;;;;11.30;2.75;;;;;;;12.87;75.99;100658.31;4966694;28;20052;-62
2023/11/07 06:12:50;;;;;;;8.95;2.45;;;;;;;13.06;76.55;100652.44;4950976;29;20479;-62
2023/11/07 06:15:17;;;;;;;14.13;2.42;;;;;;;12.75;76.04;100660.97;4936725;29;20077;-62
2023/11/07 06:17:46;;;;;;;11.93;2.95;;;;;;;12.34;75.12;100664.28;4965634;28;20052;-63
2023/11/07 06:20:13;;;;;;;11.73;2.63;;;;;;;12.76;77.00;100659.03;4937440;29;20058;-62
2023/11/07 06:22:40;;;;;;;14.05;2.67;;;;;;;13.03;76.62;100666.91;4937582;29;20063;-60
2023/11/07 06:25:09;;;;;;;9.48;2.90;;;;;;;13.11;76.08;100668.88;4937595;28;20051;-60
2023/11/07 06:27:36;;;;;;;11.43;2.78;;;;;;;12.92;76.23;100673.94;4967258;28;20052;-61
2023/11/07 06:30:06;;;;;;;9.77;2.35;;;;;;;13.00;76.57;100682.19;4944974;29;20080;-60
2023/11/07 06:32:34;;;;;;;10.80;2.40;;;;;;;13.02;75.68;100674.41;4950077;28;20050;-61
2023/11/07 06:35:02;;;;;;;7.53;2.58;;;;;;;13.22;75.70;100675.63;4955994;29;20043;-60
2023/11/07 06:37:35;;;;;;;8.45;2.65;;;;;;;13.17;75.06;100682.16;4954147;28;20062;-61
2023/11/07 06:40:05;;;;;;;9.40;2.70;;;;;;;12.76;75.34;100679.16;4950891;29;20063;-62
2023/11/07 06:42:34;;;;;;;18.08;2.90;;;;;;;12.93;76.26;100681.91;4936421;29;20055;-60
2023/11/07 06:45:05;;;;;;;9.13;2.50;;;;;;;13.14;76.02;100690.31;4935210;29;20058;-63
2023/11/07 06:47:32;;;;;;;9.43;2.75;;;;;;;13.11;74.18;100693.75;4951215;29;20496;-63
2023/11/07 06:50:07;;;;;;;12.13;2.88;;;;;;;12.89;75.56;100689.22;4936778;29;20050;-64
2023/11/07 06:52:48;;;;;;;11.52;3.03;;;;;;;12.59;75.57;100697.75;4951219;29;20054;-63
2023/11/07 06:55:15;;;;;;;8.38;2.95;;;;;;;12.75;75.49;100690.53;4973964;28;20441;-63
2023/11/07 06:57:43;;;;;;;9.80;2.72;;;;;;;12.82;76.03;100697.22;4953572;29;20055;-62
2023/11/07 07:00:10;;;;;;;13.02;2.95;;;;;;;12.89;76.55;100699.47;4986304;28;20058;-63
2023/11/07 07:02:40;;;;;;;11.18;2.78;;;;;;;12.81;75.02;100703.06;4946890;29;20048;-61
2023/11/07 07:05:12;;;;;;;;;;;;;;;12.85;76.10;100713.13;4937133;29;20052;-61
2023/11/07 07:07:42;;;;;;;10.10;2.63;;;;;;;12.90;75.99;100712.94;4937203;28;19927;-61
2023/11/07 07:10:10;;;;;;;10.55;2.78;;;;;;;12.70;75.46;100719.19;4960041;28;20039;-61
2023/11/07 07:12:38;;;;;;;12.20;3.10;;;;;;;12.97;75.98;100712.47;4935864;29;20058;-62
2023/11/07 07:15:06;;;;;;;11.02;2.58;;;;;;;12.95;74.76;100718.34;4933297;29;20063;-61
2023/11/07 07:17:34;;;;;;;10.48;2.72;;;;;;;12.90;74.86;100720.44;4936730;29;20063;-61
2023/11/07 07:20:03;;;;;;;10.40;2.50;;;;;;;13.12;74.88;100726.59;4950890;28;20062;-62
2023/11/07 07:22:35;;;;;;;12.17;3.00;;;;;;;12.88;75.17;100726.31;4964900;28;20059;-61
2023/11/07 07:25:06;;;;;;;11.85;2.85;;;;;;;13.12;75.62;100728.53;4936294;29;20058;-63
2023/11/07 07:27:34;;;;;;;12.75;3.00;;;;;;;12.99;75.15;100733.09;4974133;28;20060;-61
2023/11/07 07:30:01;;;;;;;10.80;2.78;;;;;;;12.75;76.82;100726.47;4938823;29;20043;-66
2023/11/07 07:32:29;;;;;;;9.07;2.63;;;;;;;12.64;76.91;100736.25;4931456;29;20054;-63
2023/11/07 07:34:56;;;;;;;17.55;5.65;;;;;;;12.48;78.65;100739.50;4933774;28;20059;-64
2023/11/07 07:37:27;;;;;;;12.07;3.28;;;;;;;12.74;79.17;100739.50;4948590;28;20595;-62
2023/11/07 07:40:08;;;;;;;11.65;2.60;;;;;;;12.97;75.70;100743.66;4917626;29;20380;-61
2023/11/07 07:42:36;;;;;;;10.23;2.70;;;;;;;12.71;75.40;100747.63;4935551;28;20063;-62
2023/11/07 07:45:03;;;;;;;13.50;3.38;;;;;;;12.98;75.79;100752.78;4934495;29;20054;-62
2023/11/07 07:47:31;;;;;;;10.50;2.78;;;;;;;13.35;74.77;100761.16;4933954;29;20043;-61
2023/11/07 07:49:59;;;;;;;11.98;2.50;;;;;;;13.27;74.85;100763.97;4966433;28;20121;-63
2023/11/07 07:52:26;;;;;;;11.20;2.97;;;;;;;12.84;75.52;100764.03;4939631;29;20059;-64
2023/11/07 07:55:03;;;;;;;13.10;2.60;;;;;;;13.00;76.60;100770.69;4931469;29;20048;-66
2023/11/07 07:58:18;;;;;;;10.00;2.80;;;;;;;13.17;74.77;100773.44;4933672;29;20048;-65
2023/11/07 08:01:06;;;;;;;10.38;2.97;;;;;;;13.24;74.84;100775.69;4945779;28;20565;-62
2023/11/07 08:03:33;;;;;;;10.68;2.75;;;;;;;13.14;74.76;100776.88;4931198;29;20059;-62
2023/11/07 08:06:02;;;;;;;10.68;2.63;;;;;;;13.07;74.70;100782.09;4957461;28;20203;-61
2023/11/07 08:08:31;;;;;;;14.25;4.55;;;;;;;13.08;74.78;100778.16;4931802;29;20044;-61
2023/11/07 08:10:58;;;;;;;11.65;3.60;;;;;;;13.06;74.52;100793.44;4935476;29;20054;-62
2023/11/07 08:13:29;;;;;;;8.17;2.70;;;;;;;13.14;75.32;100792.66;4932396;29;20051;-61
2023/11/07 08:15:56;;;;;;;10.60;2.72;;;;;;;12.37;74.90;100800.94;4930861;29;20064;-63
2023/11/07 08:18:23;;;;;;;8.63;2.67;;;;;;;12.77;76.44;100799.66;4963997;28;20044;-62
2023/11/07 08:20:51;;;;;;;12.85;3.38;;;;;;;12.09;77.86;100796.81;4931855;29;20066;-62
2023/11/07 08:23:18;;;;;;;8.68;2.88;;;;;;;12.95;76.03;100797.69;4933985;29;20602;-62
2023/11/07 08:25:45;;;;;;;11.30;2.88;;;;;;;12.95;74.99;100798.50;4936032;29;20067;-62
2023/11/07 08:28:12;;;;;;;10.88;2.78;;;;;;;13.27;74.73;100797.97;4931496;29;20054;-61
2023/11/07 08:30:43;;;;;;;8.40;2.58;;;;;;;13.29;73.88;100800.41;4931878;29;20060;-61
2023/11/07 08:33:12;;;;;;;14.38;2.75;;;;;;;13.04;73.84;100809.59;4933603;29;20056;-63
2023/11/07 08:35:40;;;;;;;12.02;2.85;;;;;;;13.22;73.19;100803.69;4932561;29;20132;-62
2023/11/07 08:38:08;;;;;;;14.45;4.53;;;;;;;12.88;75.20;100808.44;4929281;29;20051;-63
2023/11/07 08:40:36;;;;;;;7.53;2.60;;;;;;;12.90;74.83;100815.25;4931142;29;20574;-62
2023/11/07 08:43:03;;;;;;;10.80;2.80;;;;;;;13.30;73.53;100813.13;4933836;29;20058;-63
2023/11/07 08:45:32;;;;;;;11.65;3.42;;;;;;;13.36;73.09;100809.84;4962804;28;20058;-62
2023/11/07 08:48:00;;;;;;;12.23;3.00;;;;;;;13.42;72.30;100816.81;4948272;28;20048;-61
2023/11/07 08:50:27;;;;;;;8.48;2.65;;;;;;;13.52;71.61;100818.41;4936394;29;20082;-62
2023/11/07 08:52:56;;;;;;;12.82;2.70;;;;;;;13.46;71.14;100823.31;4962320;28;20062;-62
2023/11/07 08:55:25;;;;;;;17.88;2.85;;;;;;;12.38;73.18;100822.72;4936917;29;20523;-63
2023/11/07 08:57:53;;;;;;;12.67;3.77;;;;;;;12.74;75.29;100829.88;4932554;29;20063;-61
2023/11/07 09:00:26;;;;;;;17.45;3.78;;;;;;;13.12;72.84;100828.94;4962123;28;20058;-62
2023/11/07 09:02:54;;;;;;;13.85;4.15;;;;;;;13.20;72.73;100825.31;4932995;29;20058;-62
2023/11/07 09:05:22;;;;;;;16.05;3.30;;;;;;;13.30;71.83;100830.50;4945279;29;20066;-62
2023/11/07 09:07:49;;;;;;;9.57;2.65;;;;;;;13.44;71.26;100830.34;4932264;29;20051;-63
2023/11/07 09:10:19;;;;;;;11.00;2.63;;;;;;;13.49;71.27;100832.91;4937298;29;20052;-61
2023/11/07 09:12:46;;;;;;;16.17;3.05;;;;;;;13.43;70.83;100834.22;4932314;29;20052;-61
2023/11/07 09:15:14;;;;;;;18.27;5.10;;;;;;;13.23;70.28;100837.69;4960688;28;20052;-61
2023/11/07 09:17:42;;;;;;;11.68;3.95;;;;;;;13.12;72.70;100840.00;4930853;29;20058;-61
2023/11/07 09:20:14;;;;;;;10.75;4.07;;;;;;;13.51;71.89;100836.97;4966377;28;20060;-61
2023/11/07 09:22:43;;;;;;;13.02;3.10;;;;;;;13.54;70.33;100836.34;4933492;29;20067;-63
2023/11/07 09:25:11;;;;;;;9.80;2.72;;;;;;;13.47;70.96;100838.78;4938375;29;20055;-63
2023/11/07 09:27:39;;;;;;;9.95;2.92;;;;;;;13.31;70.02;100839.63;4937510;29;20471;-62
2023/11/07 09:30:11;;;;;;;12.18;2.42;;;;;;;13.34;70.63;100845.31;4933909;29;20532;-62
2023/11/07 09:32:41;;;;;;;13.50;2.90;;;;;;;13.37;70.85;100852.94;4929465;29;20459;-62
2023/11/07 09:35:09;;;;;;;15.32;3.17;;;;;;;13.26;70.30;100848.94;4932039;29;20107;-64
2023/11/07 09:37:39;;;;;;;10.77;2.65;;;;;;;13.48;70.31;100847.88;4965165;28;20047;-61
2023/11/07 09:40:17;;;;;;;12.38;3.42;;;;;;;13.59;70.08;100854.69;4946370;29;20047;-62
2023/11/07 09:42:50;;;;;;;14.30;3.83;;;;;;;13.72;69.68;100861.19;4935808;29;20060;-62
2023/11/07 09:45:19;;;;;;;10.38;2.90;;;;;;;13.99;68.69;100853.25;4933697;28;20066;-63
2023/11/07 09:47:48;;;;;;;14.93;3.13;;;;;;;13.56;69.14;100867.22;4937874;29;20051;-62
2023/11/07 09:50:17;;;;;;;9.85;3.03;;;;;;;14.00;68.46;100860.41;4944099;29;20595;-62
2023/11/07 09:52:47;;;;;;;13.60;3.00;;;;;;;13.77;68.27;100866.53;4953152;28;20074;-61
2023/11/07 09:55:15;;;;;;;11.73;3.45;;;;;;;13.52;68.39;100874.59;4928760;29;20665;-63
2023/11/07 09:57:47;;;;;;;15.30;3.00;;;;;;;13.35;69.11;100880.13;4933100;29;20446;-61
2023/11/07 10:00:22;;;;;;;16.63;2.60;;;;;;;12.85;70.09;100875.44;4967661;28;20061;-62
2023/11/07 10:02:50;;;;;;;13.57;2.75;;;;;;;13.26;71.07;100876.59;4959432;28;20071;-66
2023/11/07 10:05:19;;;;;;;12.20;2.80;;;;;;;13.73;69.29;100884.94;4949151;28;20043;-66
2023/11/07 10:07:49;;;;;;;14.63;2.83;;;;;;;13.66;68.99;100876.31;4935765;29;20051;-66
2023/11/07 10:10:18;;;;;;;;;;;;;;;13.98;67.51;100881.28;4932649;29;20074;-66
2023/11/07 10:12:47;;;;;;;16.23;3.15;;;;;;;13.84;68.05;100875.13;4960864;28;19934;-66
2023/11/07 10:15:23;;;;;;;15.90;2.90;;;;;;;13.48;67.63;100883.84;4963995;28;20646;-66
2023/11/07 10:17:57;;;;;;;12.85;2.85;;;;;;;13.10;68.63;100883.75;4932495;29;20466;-67
2023/11/07 10:20:26;;;;;;;13.38;2.88;;;;;;;13.36;70.14;100890.06;4967123;28;20047;-67
2023/11/07 10:22:53;;;;;;;9.38;2.30;;;;;;;13.53;69.25;100881.72;4930467;29;20655;-65
2023/11/07 10:25:36;;;;;;;13.90;3.53;;;;;;;13.86;68.13;100881.97;4969561;28;20047;-64
2023/11/07 10:28:05;;;;;;;17.67;3.33;;;;;;;14.01;66.53;100883.38;4931995;29;20059;-64
2023/11/07 10:30:41;;;;;;;13.40;2.75;;;;;;;13.86;65.92;100884.72;4949106;29;20052;-64
2023/11/07 10:33:09;;;;;;;13.90;3.08;;;;;;;13.40;68.24;100888.28;4936364;29;20058;-64
2023/11/07 10:35:54;;;;;;;10.35;2.33;;;;;;;13.37;67.49;100885.38;4947204;29;20055;-64
2023/11/07 10:38:22;;;;;;;14.85;2.88;;;;;;;13.72;69.20;100897.16;4928506;29;20044;-65
2023/11/07 10:40:50;;;;;;;11.07;3.15;;;;;;;14.11;67.66;100894.09;4933370;29;20070;-64
2023/11/07 10:43:34;;;;;;;15.88;3.65;;;;;;;14.27;64.88;100892.41;4938005;29;20044;-64
2023/11/07 10:46:08;;;;;;;17.25;3.20;;;;;;;14.28;66.19;100889.31;4934130;29;20051;-66
2023/11/07 10:48:39;;;;;;;15.73;3.03;;;;;;;14.60;65.26;100885.03;4936123;29;20466;-65
2023/11/07 10:51:09;;;;;;;12.68;2.95;;;;;;;14.40;65.52;100892.16;4933798;29;20064;-65
2023/11/07 10:53:38;;;;;;;11.05;3.33;;;;;;;14.47;65.53;100895.22;4935565;28;20059;-64
2023/11/07 10:56:12;;;;;;;15.57;3.78;;;;;;;14.29;64.60;100890.13;4949380;28;20047;-64
2023/11/07 10:59:00;;;;;;;17.77;3.13;;;;;;;14.62;64.58;100891.91;4932009;29;20055;-63
2023/11/07 11:01:29;;;;;;;14.43;3.38;;;;;;;14.35;65.20;100891.53;4929550;29;20692;-64
2023/11/07 11:04:00;;;;;;;14.43;3.03;;;;;;;14.55;65.12;100897.16;4936006;29;20049;-67
2023/11/07 11:06:29;;;;;;;12.85;2.63;;;;;;;14.43;65.04;100893.47;4928000;29;20100;-65
2023/11/07 11:08:57;;;;;;;16.05;3.25;;;;;;;14.27;64.93;100882.16;4914305;29;20052;-65
2023/11/07 11:11:24;;;;;;;16.45;2.70;;;;;;;14.03;66.69;100894.94;4933068;29;20048;-65
2023/11/07 11:13:55;;;;;;;15.75;3.10;;;;;;;14.17;66.17;100892.75;4938906;29;20059;-63
2023/11/07 11:16:22;;;;;;;12.68;3.85;;;;;;;14.15;66.36;100883.97;4932744;29;20048;-66
2023/11/07 11:18:59;;;;;;;13.25;3.03;;;;;;;13.95;66.42;100885.50;4949405;28;20063;-65
2023/11/07 11:21:46;;;;;;;16.25;5.55;;;;;;;14.04;66.06;100885.47;4934982;29;20058;-64
2023/11/07 11:24:21;;;;;;;17.17;6.68;;;;;;;14.27;66.45;100890.47;4932359;29;20055;-62
2023/11/07 11:26:53;;;;;;;24.50;5.82;;;;;;;14.58;65.85;100873.47;4962032;28;20055;-63
2023/11/07 11:29:28;;;;;;;16.10;4.45;;;;;;;14.34;64.20;100878.84;4931593;29;20070;-61